createdAt,value
2022-10-17T00:04:16.648Z,15.31
2022-10-17T00:09:22.179Z,15.27
2022-10-17T00:14:27.704Z,15.26
2022-10-17T00:19:33.065Z,15.25
2022-10-17T00:24:38.586Z,15.26
2022-10-17T00:29:44.060Z,15.27
2022-10-17T00:34:49.514Z,15.21
2022-10-17T00:39:56.129Z,15.19
2022-10-17T00:45:04.624Z,15.24
2022-10-17T00:50:12.242Z,15.19
2022-10-17T00:55:29.908Z,15.18
2022-10-17T01:00:37.072Z,15.17
2022-10-17T01:05:43.850Z,15.21
2022-10-17T01:11:13.573Z,15.25
2022-10-17T01:16:25.017Z,15.27
2022-10-17T01:21:48.287Z,15.27
2022-10-17T01:27:19.333Z,15.27
2022-10-17T01:32:28.733Z,15.31
2022-10-17T01:37:46.330Z,15.35
2022-10-17T01:43:01.671Z,15.36
2022-10-17T01:48:10.574Z,15.36
2022-10-17T01:53:21.911Z,15.39
2022-10-17T01:58:31.770Z,15.40
2022-10-17T02:03:38.439Z,15.41
2022-10-17T02:08:46.727Z,15.42
2022-10-17T02:14:07.336Z,15.40
2022-10-17T02:19:47.524Z,15.41
2022-10-17T02:24:57.720Z,15.40
2022-10-17T02:30:18.243Z,15.37
2022-10-17T02:35:26.240Z,15.43
2022-10-17T02:40:32.997Z,15.39
2022-10-17T02:45:39.956Z,15.39
2022-10-17T02:50:48.479Z,15.42
2022-10-17T02:55:57.066Z,15.49
2022-10-17T03:01:03.011Z,15.49
2022-10-17T03:06:09.583Z,15.50
2022-10-17T03:11:15.103Z,15.53
2022-10-17T03:16:20.751Z,15.51
2022-10-17T03:21:26.602Z,15.48
2022-10-17T03:26:33.289Z,15.45
2022-10-17T03:31:38.877Z,15.42
2022-10-17T03:36:44.947Z,15.37
2022-10-17T03:41:50.960Z,15.31
2022-10-17T03:46:56.642Z,15.33
2022-10-17T03:52:02.268Z,15.37
2022-10-17T03:57:08.207Z,15.39
2022-10-17T04:02:14.216Z,15.40
2022-10-17T04:07:20.138Z,15.44
2022-10-17T04:12:27.066Z,15.44
2022-10-17T04:17:37.291Z,15.44
2022-10-17T04:22:41.533Z,15.44
2022-10-17T04:27:49.141Z,15.44
2022-10-17T04:32:56.209Z,15.46
2022-10-17T04:38:01.838Z,15.45
2022-10-17T04:43:07.573Z,15.43
2022-10-17T04:48:13.996Z,15.38
2022-10-17T04:53:20.601Z,15.34
2022-10-17T04:58:28.454Z,15.31
2022-10-17T05:03:34.823Z,15.27
2022-10-17T05:08:40.900Z,15.29
2022-10-17T05:13:48.128Z,15.26
2022-10-17T05:18:55.723Z,15.30
2022-10-17T05:24:01.310Z,15.34
2022-10-17T05:29:07.391Z,15.27
2022-10-17T05:34:14.636Z,15.31
2022-10-17T05:39:20.699Z,15.37
2022-10-17T05:44:26.793Z,15.42
2022-10-17T05:49:45.174Z,15.46
2022-10-17T05:54:42.578Z,15.52
2022-10-17T05:59:49.510Z,15.50
2022-10-17T06:04:56.601Z,15.46
2022-10-17T06:10:02.674Z,15.52
2022-10-17T06:15:23.631Z,15.49
2022-10-17T06:20:30.690Z,15.53
2022-10-17T06:25:37.555Z,15.56
2022-10-17T06:30:43.506Z,15.55
2022-10-17T06:35:54.757Z,15.51
2022-10-17T06:41:10.803Z,15.61
2022-10-17T06:46:17.915Z,15.67
2022-10-17T06:51:25.056Z,15.73
2022-10-17T06:56:32.318Z,15.82
2022-10-17T07:01:41.816Z,15.85
2022-10-17T07:06:47.116Z,16.00
2022-10-17T07:11:57.302Z,16.52
2022-10-17T07:17:03.552Z,16.90
2022-10-17T07:22:11.152Z,17.14
2022-10-17T07:27:18.302Z,17.29
2022-10-17T07:32:25.393Z,17.46
2022-10-17T07:37:32.099Z,17.66
2022-10-17T07:47:44.962Z,17.96
2022-10-17T07:52:52.112Z,18.10
2022-10-17T07:58:00.668Z,18.23
2022-10-17T08:03:06.451Z,18.33
2022-10-17T08:08:11.912Z,18.45
2022-10-17T08:13:17.386Z,18.55
2022-10-17T08:18:23.015Z,18.65
2022-10-17T08:23:30.073Z,18.76
2022-10-17T08:28:37.978Z,18.88
2022-10-17T08:33:44.015Z,19.03
2022-10-17T08:38:52.767Z,19.19
2022-10-17T08:44:12.229Z,19.28
2022-10-17T08:49:40.423Z,19.38
2022-10-17T08:54:49.224Z,19.57
2022-10-17T08:59:56.873Z,19.69
2022-10-17T09:05:26.600Z,19.79
2022-10-17T09:10:46.517Z,19.82
2022-10-17T09:16:04.010Z,19.89
2022-10-17T09:21:30.372Z,19.98
2022-10-17T09:26:36.367Z,20.02
2022-10-17T09:31:47.583Z,20.07
2022-10-17T09:36:54.017Z,20.16
2022-10-17T09:42:01.708Z,20.31
2022-10-17T09:47:24.930Z,20.40
2022-10-17T09:52:50.790Z,20.48
2022-10-17T09:57:59.218Z,20.59
2022-10-17T10:03:22.209Z,20.71
2022-10-17T10:08:34.024Z,20.81
2022-10-17T10:13:39.643Z,20.90
2022-10-17T10:18:47.548Z,21.05
2022-10-17T10:24:02.574Z,21.14
2022-10-17T10:29:29.185Z,21.16
2022-10-17T10:34:36.207Z,21.28
2022-10-17T10:39:44.717Z,21.44
2022-10-17T10:44:52.120Z,21.55
2022-10-17T10:50:03.435Z,21.68
2022-10-17T10:55:23.911Z,21.88
2022-10-17T11:00:32.128Z,21.96
2022-10-17T11:06:03.168Z,22.17
2022-10-17T11:11:19.123Z,22.30
2022-10-17T11:16:42.881Z,22.45
2022-10-17T11:21:52.980Z,22.65
2022-10-17T11:27:06.873Z,22.80
2022-10-17T11:32:36.550Z,22.91
2022-10-17T11:37:48.322Z,22.97
2022-10-17T11:43:17.176Z,22.98
2022-10-17T11:48:31.458Z,23.01
2022-10-17T11:53:45.835Z,22.97
2022-10-17T11:59:00.086Z,23.09
2022-10-17T12:04:28.087Z,23.23
2022-10-17T12:09:51.281Z,23.37
2022-10-17T12:15:16.363Z,23.57
2022-10-17T12:20:27.738Z,23.68
2022-10-17T12:25:38.073Z,23.79
2022-10-17T12:31:06.049Z,23.90
2022-10-17T12:36:22.927Z,24.03
2022-10-17T12:41:44.965Z,24.09
2022-10-17T12:46:52.756Z,24.18
2022-10-17T12:52:18.891Z,24.27
2022-10-17T12:57:30.766Z,24.29
2022-10-17T13:02:37.516Z,24.29
2022-10-17T13:07:46.150Z,24.35
2022-10-17T13:12:54.268Z,24.48
2022-10-17T13:18:01.640Z,24.55
2022-10-17T13:23:07.083Z,24.64
2022-10-17T13:28:14.267Z,24.64
2022-10-17T13:33:34.605Z,24.65
2022-10-17T13:38:42.595Z,24.66
2022-10-17T13:43:47.624Z,24.65
2022-10-17T13:48:53.628Z,24.60
2022-10-17T13:53:59.060Z,24.47
2022-10-17T13:59:07.481Z,24.34
2022-10-17T14:04:19.774Z,24.21
2022-10-17T14:09:28.909Z,24.15
2022-10-17T14:14:58.112Z,24.23
2022-10-17T14:19:42.273Z,24.32
2022-10-17T14:24:48.196Z,24.26
2022-10-17T14:29:55.676Z,24.28
2022-10-17T14:35:24.390Z,24.31
2022-10-17T14:40:28.101Z,24.27
2022-10-17T14:45:36.688Z,24.22
2022-10-17T14:56:01.084Z,24.11
2022-10-17T15:01:06.984Z,24.07
2022-10-17T15:06:33.320Z,24.01
2022-10-17T15:11:39.716Z,23.88
2022-10-17T15:16:45.180Z,23.72
2022-10-17T15:21:50.578Z,23.60
2022-10-17T15:26:56.682Z,23.53
2022-10-17T15:32:02.159Z,23.43
2022-10-17T15:37:10.202Z,23.29
2022-10-17T15:42:15.567Z,23.21
2022-10-17T15:47:34.506Z,23.13
2022-10-17T15:52:41.519Z,23.06
2022-10-17T15:57:48.950Z,22.96
2022-10-17T16:02:54.413Z,22.82
2022-10-17T16:07:59.893Z,22.75
2022-10-17T16:13:05.279Z,22.70
2022-10-17T16:18:10.878Z,22.66
2022-10-17T16:23:16.436Z,22.58
2022-10-17T16:28:22.040Z,22.49
2022-10-17T16:33:27.682Z,22.40
2022-10-17T16:38:33.142Z,22.33
2022-10-17T16:43:38.600Z,22.27
2022-10-17T16:48:45.750Z,22.26
2022-10-17T16:53:54.529Z,22.24
2022-10-17T16:59:01.434Z,22.22
2022-10-17T17:04:08.606Z,22.20
2022-10-17T17:09:14.322Z,22.16
2022-10-17T17:14:19.777Z,22.15
2022-10-17T17:19:25.747Z,22.15
2022-10-17T17:24:31.441Z,22.14
2022-10-17T17:29:38.083Z,22.12
2022-10-17T17:34:43.607Z,22.08
2022-10-17T17:39:49.210Z,22.05
2022-10-17T17:44:54.762Z,22.04
2022-10-17T17:50:00.316Z,22.03
2022-10-17T17:55:06.355Z,22.02
2022-10-17T18:00:12.846Z,21.98
2022-10-17T18:05:18.549Z,21.98
2022-10-17T18:10:24.267Z,21.97
2022-10-17T18:15:29.872Z,21.96
2022-10-17T18:20:36.318Z,21.95
2022-10-17T18:25:41.925Z,21.92
2022-10-17T18:30:47.397Z,21.89
2022-10-17T18:35:55.957Z,21.86
2022-10-17T18:41:17.912Z,21.86
2022-10-17T18:46:25.841Z,21.82
2022-10-17T18:51:31.290Z,21.77
2022-10-17T18:56:36.863Z,21.74
2022-10-17T19:01:43.811Z,21.76
2022-10-17T19:06:49.432Z,21.77
2022-10-17T19:11:55.427Z,21.73
2022-10-17T19:17:01.937Z,21.71
2022-10-17T19:22:08.436Z,21.69
2022-10-17T19:27:13.967Z,21.67
2022-10-17T19:32:22.838Z,21.68
2022-10-17T19:37:27.191Z,21.65
2022-10-17T19:42:33.563Z,21.61
2022-10-17T19:47:40.004Z,21.59
2022-10-17T19:52:45.728Z,21.55
2022-10-17T19:57:51.179Z,21.50
2022-10-17T20:02:56.937Z,21.45
2022-10-17T20:08:03.166Z,21.40
2022-10-17T20:13:09.145Z,21.33
2022-10-17T20:18:14.689Z,21.31
2022-10-17T20:23:21.747Z,21.27
2022-10-17T20:28:28.052Z,21.23
2022-10-17T20:33:33.659Z,21.15
2022-10-17T20:38:39.577Z,21.12
2022-10-17T20:43:45.778Z,21.10
2022-10-17T20:48:55.313Z,21.06
2022-10-17T20:54:00.972Z,21.07
2022-10-17T20:59:09.729Z,21.86
2022-10-17T21:04:44.215Z,21.24
2022-10-17T21:09:23.089Z,21.06
2022-10-17T21:14:28.543Z,21.02
2022-10-17T21:19:34.336Z,20.92
2022-10-17T21:24:39.781Z,20.86
2022-10-17T21:29:45.781Z,20.81
2022-10-17T21:34:51.294Z,20.74
2022-10-17T21:39:56.831Z,20.67
2022-10-17T21:45:07.441Z,20.65
2022-10-17T21:50:10.512Z,20.64
2022-10-17T21:55:16.037Z,20.62
2022-10-17T22:00:21.558Z,20.60
2022-10-17T22:05:27.030Z,20.59
2022-10-17T22:10:32.494Z,20.63
2022-10-17T22:15:38.016Z,20.60
2022-10-17T22:20:43.648Z,20.58
2022-10-17T22:25:57.035Z,20.55
2022-10-17T22:31:02.961Z,20.57
2022-10-17T22:36:09.942Z,20.57
2022-10-17T22:41:15.829Z,20.50
2022-10-17T22:46:21.368Z,20.43
2022-10-17T22:51:26.894Z,20.41
2022-10-17T22:56:32.414Z,20.34
2022-10-17T23:01:37.955Z,20.27
2022-10-17T23:06:43.443Z,20.23
2022-10-17T23:11:48.974Z,20.25
2022-10-17T23:16:54.491Z,20.25
2022-10-17T23:22:00.021Z,20.16
2022-10-17T23:27:05.552Z,20.04
2022-10-17T23:32:11.016Z,20.00
2022-10-17T23:37:16.465Z,19.93
2022-10-17T23:42:21.974Z,19.89
2022-10-17T23:47:27.644Z,19.84
2022-10-17T23:52:33.792Z,19.85
2022-10-17T23:57:39.328Z,19.81
